sensor_id;sensor_type;location;lat;lon;timestamp;pressure;altitude;pressure_sealevel;temperature;humidity
83095;BME280;72967;43.674;6.976;2023-12-20T00:01:48;96774.84;;;10.10;48.72
83095;BME280;72967;43.674;6.976;2023-12-20T00:04:14;96786.66;;;10.22;51.29
83095;BME280;72967;43.674;6.976;2023-12-20T00:06:40;96783.47;;;10.20;52.67
83095;BME280;72967;43.674;6.976;2023-12-20T00:09:05;96787.13;;;10.25;51.89
83095;BME280;72967;43.674;6.976;2023-12-20T00:11:30;96773.97;;;10.18;52.50
83095;BME280;72967;43.674;6.976;2023-12-20T00:13:56;96775.78;;;10.14;46.34
83095;BME280;72967;43.674;6.976;2023-12-20T00:16:21;96774.28;;;10.16;44.39
83095;BME280;72967;43.674;6.976;2023-12-20T00:18:47;96770.03;;;10.07;43.83
83095;BME280;72967;43.674;6.976;2023-12-20T00:21:12;96769.94;;;10.15;45.78
83095;BME280;72967;43.674;6.976;2023-12-20T00:23:37;96742.56;;;10.07;45.19
83095;BME280;72967;43.674;6.976;2023-12-20T00:26:03;96749.56;;;10.16;44.21
83095;BME280;72967;43.674;6.976;2023-12-20T00:28:28;96739.13;;;9.98;42.95
83095;BME280;72967;43.674;6.976;2023-12-20T00:30:54;96739.72;;;10.03;43.10
83095;BME280;72967;43.674;6.976;2023-12-20T00:33:19;96707.56;;;9.67;43.56
83095;BME280;72967;43.674;6.976;2023-12-20T00:35:44;96717.81;;;9.46;43.64
83095;BME280;72967;43.674;6.976;2023-12-20T00:38:10;96720.81;;;9.53;43.62
83095;BME280;72967;43.674;6.976;2023-12-20T00:40:36;96716.69;;;9.47;43.40
83095;BME280;72967;43.674;6.976;2023-12-20T00:43:02;96721.84;;;9.61;43.36
83095;BME280;72967;43.674;6.976;2023-12-20T00:45:27;96720.38;;;9.63;43.68
83095;BME280;72967;43.674;6.976;2023-12-20T00:47:53;96725.97;;;9.67;44.11
83095;BME280;72967;43.674;6.976;2023-12-20T00:50:18;96716.91;;;9.54;45.15
83095;BME280;72967;43.674;6.976;2023-12-20T00:52:44;96725.38;;;9.61;45.20
83095;BME280;72967;43.674;6.976;2023-12-20T00:55:09;96702.97;;;9.47;45.70
83095;BME280;72967;43.674;6.976;2023-12-20T00:57:35;96712.53;;;9.41;45.60
83095;BME280;72967;43.674;6.976;2023-12-20T01:00:00;96710.59;;;9.42;45.20
83095;BME280;72967;43.674;6.976;2023-12-20T01:02:26;96705.25;;;9.57;44.67
83095;BME280;72967;43.674;6.976;2023-12-20T01:04:51;96691.41;;;9.54;44.70
83095;BME280;72967;43.674;6.976;2023-12-20T01:07:17;96702.75;;;9.52;44.80
83095;BME280;72967;43.674;6.976;2023-12-20T01:09:42;96708.88;;;9.49;45.54
83095;BME280;72967;43.674;6.976;2023-12-20T01:12:07;96692.44;;;9.37;45.72
83095;BME280;72967;43.674;6.976;2023-12-20T01:14:33;96705.69;;;9.47;46.25
83095;BME280;72967;43.674;6.976;2023-12-20T01:16:59;96673.22;;;9.37;47.35
83095;BME280;72967;43.674;6.976;2023-12-20T01:19:25;96687.44;;;9.63;47.89
83095;BME280;72967;43.674;6.976;2023-12-20T01:21:50;96669.44;;;9.54;50.20
83095;BME280;72967;43.674;6.976;2023-12-20T01:24:16;96671.75;;;9.52;49.31
83095;BME280;72967;43.674;6.976;2023-12-20T01:26:41;96666.00;;;9.45;50.44
83095;BME280;72967;43.674;6.976;2023-12-20T01:29:07;96657.91;;;9.36;49.74
83095;BME280;72967;43.674;6.976;2023-12-20T01:31:32;96676.44;;;9.51;48.39
83095;BME280;72967;43.674;6.976;2023-12-20T01:33:58;96675.59;;;9.38;46.08
83095;BME280;72967;43.674;6.976;2023-12-20T01:36:23;96680.41;;;9.29;46.28
83095;BME280;72967;43.674;6.976;2023-12-20T01:38:49;96666.91;;;9.24;45.40
83095;BME280;72967;43.674;6.976;2023-12-20T01:41:14;96660.81;;;9.07;44.97
83095;BME280;72967;43.674;6.976;2023-12-20T01:43:40;96671.00;;;9.06;48.43
83095;BME280;72967;43.674;6.976;2023-12-20T01:46:05;96669.59;;;9.12;48.62
83095;BME280;72967;43.674;6.976;2023-12-20T01:48:31;96660.59;;;9.12;52.39
83095;BME280;72967;43.674;6.976;2023-12-20T01:50:59;96650.09;;;9.14;54.86
83095;BME280;72967;43.674;6.976;2023-12-20T01:53:25;96621.25;;;8.95;52.45
83095;BME280;72967;43.674;6.976;2023-12-20T01:55:54;96670.13;;;9.26;55.14
83095;BME280;72967;43.674;6.976;2023-12-20T01:58:22;96652.59;;;9.19;56.44
83095;BME280;72967;43.674;6.976;2023-12-20T02:00:48;96643.91;;;9.05;61.02
83095;BME280;72967;43.674;6.976;2023-12-20T02:03:14;96649.84;;;9.19;63.63
83095;BME280;72967;43.674;6.976;2023-12-20T02:05:40;96644.59;;;9.14;62.77
83095;BME280;72967;43.674;6.976;2023-12-20T02:08:06;96638.88;;;9.19;62.62
83095;BME280;72967;43.674;6.976;2023-12-20T02:10:32;96637.06;;;9.23;62.59
83095;BME280;72967;43.674;6.976;2023-12-20T02:12:57;96639.94;;;9.38;62.24
83095;BME280;72967;43.674;6.976;2023-12-20T02:15:23;96633.66;;;9.38;64.14
83095;BME280;72967;43.674;6.976;2023-12-20T02:17:49;96636.06;;;9.52;65.96
83095;BME280;72967;43.674;6.976;2023-12-20T02:20:14;96630.56;;;9.64;64.64
83095;BME280;72967;43.674;6.976;2023-12-20T02:22:40;96624.63;;;9.62;68.00
83095;BME280;72967;43.674;6.976;2023-12-20T02:25:05;96635.63;;;9.62;70.73
83095;BME280;72967;43.674;6.976;2023-12-20T02:27:31;96618.44;;;9.65;68.25
83095;BME280;72967;43.674;6.976;2023-12-20T02:29:56;96618.22;;;9.70;69.31
83095;BME280;72967;43.674;6.976;2023-12-20T02:32:22;96614.22;;;9.67;67.78
83095;BME280;72967;43.674;6.976;2023-12-20T02:34:51;96610.69;;;9.67;66.60
83095;BME280;72967;43.674;6.976;2023-12-20T02:37:17;96640.88;;;9.79;66.09
83095;BME280;72967;43.674;6.976;2023-12-20T02:39:42;96627.59;;;9.81;66.10
83095;BME280;72967;43.674;6.976;2023-12-20T02:42:08;96627.59;;;9.81;65.69
83095;BME280;72967;43.674;6.976;2023-12-20T02:44:33;96628.75;;;9.68;68.57
83095;BME280;72967;43.674;6.976;2023-12-20T02:46:59;96617.78;;;9.68;68.56
83095;BME280;72967;43.674;6.976;2023-12-20T02:49:24;96617.66;;;9.52;67.60
83095;BME280;72967;43.674;6.976;2023-12-20T02:51:50;96610.34;;;9.56;67.42
83095;BME280;72967;43.674;6.976;2023-12-20T02:54:15;96602.69;;;9.62;66.22
83095;BME280;72967;43.674;6.976;2023-12-20T02:56:41;96614.22;;;9.67;66.06
83095;BME280;72967;43.674;6.976;2023-12-20T02:59:06;96604.53;;;9.58;67.95
83095;BME280;72967;43.674;6.976;2023-12-20T03:01:34;96599.13;;;9.61;68.87
83095;BME280;72967;43.674;6.976;2023-12-20T03:03:59;96588.72;;;9.55;67.74
83095;BME280;72967;43.674;6.976;2023-12-20T03:06:25;96535.34;;;9.28;69.17
83095;BME280;72967;43.674;6.976;2023-12-20T03:08:50;96591.47;;;9.55;71.39
83095;BME280;72967;43.674;6.976;2023-12-20T03:11:16;96569.41;;;9.51;71.45
83095;BME280;72967;43.674;6.976;2023-12-20T03:13:41;96577.66;;;9.63;71.84
83095;BME280;72967;43.674;6.976;2023-12-20T03:16:13;96557.03;;;9.69;71.12
83095;BME280;72967;43.674;6.976;2023-12-20T03:18:39;96569.50;;;9.79;70.24
83095;BME280;72967;43.674;6.976;2023-12-20T03:21:05;96542.06;;;9.79;70.44
83095;BME280;72967;43.674;6.976;2023-12-20T03:23:31;96546.50;;;9.71;71.74
83095;BME280;72967;43.674;6.976;2023-12-20T03:25:58;96544.09;;;9.82;71.83
83095;BME280;72967;43.674;6.976;2023-12-20T03:28:23;96520.44;;;9.65;71.40
83095;BME280;72967;43.674;6.976;2023-12-20T03:30:49;96530.16;;;9.75;72.42
83095;BME280;72967;43.674;6.976;2023-12-20T03:33:15;96526.41;;;9.67;72.67
83095;BME280;72967;43.674;6.976;2023-12-20T03:35:40;96525.13;;;9.77;72.64
83095;BME280;72967;43.674;6.976;2023-12-20T03:38:06;96511.53;;;9.68;72.63
83095;BME280;72967;43.674;6.976;2023-12-20T03:40:32;96523.53;;;9.64;72.35
83095;BME280;72967;43.674;6.976;2023-12-20T03:42:57;96501.13;;;9.62;72.27
83095;BME280;72967;43.674;6.976;2023-12-20T03:45:23;96499.06;;;9.71;71.99
83095;BME280;72967;43.674;6.976;2023-12-20T03:47:48;96498.72;;;9.72;72.15
83095;BME280;72967;43.674;6.976;2023-12-20T03:50:15;96495.06;;;9.68;72.54
83095;BME280;72967;43.674;6.976;2023-12-20T03:52:40;96492.09;;;9.61;72.34
83095;BME280;72967;43.674;6.976;2023-12-20T03:55:06;96497.94;;;9.60;72.46
83095;BME280;72967;43.674;6.976;2023-12-20T03:57:31;96498.31;;;9.58;72.00
83095;BME280;72967;43.674;6.976;2023-12-20T03:59:56;96489.13;;;9.54;72.02
83095;BME280;72967;43.674;6.976;2023-12-20T04:02:22;96478.13;;;9.66;72.03
83095;BME280;72967;43.674;6.976;2023-12-20T04:04:47;96472.31;;;9.68;71.80
83095;BME280;72967;43.674;6.976;2023-12-20T04:07:13;96472.19;;;9.64;71.85
83095;BME280;72967;43.674;6.976;2023-12-20T04:09:38;96472.31;;;9.68;71.72
83095;BME280;72967;43.674;6.976;2023-12-20T04:12:04;96467.38;;;9.73;71.61
83095;BME280;72967;43.674;6.976;2023-12-20T04:14:30;96467.38;;;9.73;71.41
83095;BME280;72967;43.674;6.976;2023-12-20T04:16:56;96469.41;;;9.76;71.20
83095;BME280;72967;43.674;6.976;2023-12-20T04:19:21;96467.63;;;9.68;72.59
83095;BME280;72967;43.674;6.976;2023-12-20T04:21:47;96454.16;;;9.63;71.72
83095;BME280;72967;43.674;6.976;2023-12-20T04:24:12;96469.16;;;9.81;72.23
83095;BME280;72967;43.674;6.976;2023-12-20T04:26:38;96459.56;;;9.75;72.63
83095;BME280;72967;43.674;6.976;2023-12-20T04:29:03;96466.97;;;9.87;72.37
83095;BME280;72967;43.674;6.976;2023-12-20T04:31:29;96462.13;;;9.96;72.03
83095;BME280;72967;43.674;6.976;2023-12-20T04:33:54;96459.84;;;9.98;72.28
83095;BME280;72967;43.674;6.976;2023-12-20T04:36:19;96458.66;;;9.84;73.16
83095;BME280;72967;43.674;6.976;2023-12-20T04:38:45;96450.34;;;9.96;72.39
83095;BME280;72967;43.674;6.976;2023-12-20T04:41:10;96449.75;;;10.02;72.85
83095;BME280;72967;43.674;6.976;2023-12-20T04:43:36;96446.94;;;10.14;72.16
83095;BME280;72967;43.674;6.976;2023-12-20T04:46:01;96438.41;;;10.04;72.05
83095;BME280;72967;43.674;6.976;2023-12-20T04:48:27;96442.88;;;10.08;71.94
83095;BME280;72967;43.674;6.976;2023-12-20T04:50:53;96446.50;;;10.12;71.46
83095;BME280;72967;43.674;6.976;2023-12-20T04:53:18;96453.25;;;10.15;72.04
83095;BME280;72967;43.674;6.976;2023-12-20T04:55:43;96442.59;;;10.13;71.49
83095;BME280;72967;43.674;6.976;2023-12-20T04:58:09;96453.25;;;10.15;71.81
83095;BME280;72967;43.674;6.976;2023-12-20T05:00:34;96449.81;;;10.18;71.41
83095;BME280;72967;43.674;6.976;2023-12-20T05:03:00;96451.41;;;10.19;71.96
83095;BME280;72967;43.674;6.976;2023-12-20T05:05:25;96450.38;;;10.23;73.13
83095;BME280;72967;43.674;6.976;2023-12-20T05:07:50;96451.00;;;10.33;72.11
83095;BME280;72967;43.674;6.976;2023-12-20T05:10:16;96437.25;;;10.33;72.08
83095;BME280;72967;43.674;6.976;2023-12-20T05:12:41;96453.06;;;10.36;72.03
83095;BME280;72967;43.674;6.976;2023-12-20T05:15:08;96443.00;;;10.28;71.92
83095;BME280;72967;43.674;6.976;2023-12-20T05:17:33;96438.13;;;10.37;71.67
83095;BME280;72967;43.674;6.976;2023-12-20T05:19:59;96441.25;;;10.35;71.74
83095;BME280;72967;43.674;6.976;2023-12-20T05:22:26;96435.59;;;10.44;71.07
83095;BME280;72967;43.674;6.976;2023-12-20T05:24:53;96422.56;;;10.41;71.90
83095;BME280;72967;43.674;6.976;2023-12-20T05:27:18;96401.38;;;10.41;71.82
83095;BME280;72967;43.674;6.976;2023-12-20T05:29:43;96402.16;;;10.42;71.73
83095;BME280;72967;43.674;6.976;2023-12-20T05:32:09;96415.56;;;10.43;71.57
83095;BME280;72967;43.674;6.976;2023-12-20T05:34:35;96425.47;;;10.48;71.91
83095;BME280;72967;43.674;6.976;2023-12-20T05:37:00;96416.28;;;10.40;71.74
83095;BME280;72967;43.674;6.976;2023-12-20T05:39:26;96421.75;;;10.40;71.29
83095;BME280;72967;43.674;6.976;2023-12-20T05:41:52;96428.59;;;10.31;70.89
83095;BME280;72967;43.674;6.976;2023-12-20T05:44:17;96420.22;;;10.27;70.70
83095;BME280;72967;43.674;6.976;2023-12-20T05:46:43;96417.94;;;10.29;70.62
83095;BME280;72967;43.674;6.976;2023-12-20T05:49:09;96408.97;;;10.32;70.40
83095;BME280;72967;43.674;6.976;2023-12-20T05:51:34;96415.88;;;10.26;69.43
83095;BME280;72967;43.674;6.976;2023-12-20T05:53:59;96398.13;;;10.08;69.06
83095;BME280;72967;43.674;6.976;2023-12-20T05:56:25;96399.19;;;10.03;69.09
83095;BME280;72967;43.674;6.976;2023-12-20T05:58:50;96412.53;;;9.89;68.00
83095;BME280;72967;43.674;6.976;2023-12-20T06:01:16;96411.72;;;9.89;68.14
83095;BME280;72967;43.674;6.976;2023-12-20T06:03:44;96391.75;;;9.76;68.35
83095;BME280;72967;43.674;6.976;2023-12-20T06:06:11;96398.50;;;9.78;68.17
83095;BME280;72967;43.674;6.976;2023-12-20T06:08:38;96402.88;;;9.95;67.62
83095;BME280;72967;43.674;6.976;2023-12-20T06:11:03;96398.19;;;9.96;68.22
83095;BME280;72967;43.674;6.976;2023-12-20T06:13:28;96394.03;;;10.02;67.43
83095;BME280;72967;43.674;6.976;2023-12-20T06:15:55;96389.53;;;10.09;67.09
83095;BME280;72967;43.674;6.976;2023-12-20T06:18:20;96387.66;;;10.13;67.03
83095;BME280;72967;43.674;6.976;2023-12-20T06:20:46;96381.03;;;10.14;66.74
83095;BME280;72967;43.674;6.976;2023-12-20T06:23:11;96378.53;;;10.09;67.77
83095;BME280;72967;43.674;6.976;2023-12-20T06:25:37;96377.97;;;10.32;67.18
83095;BME280;72967;43.674;6.976;2023-12-20T06:28:02;96357.91;;;10.15;69.60
83095;BME280;72967;43.674;6.976;2023-12-20T06:30:28;96367.94;;;10.23;70.61
83095;BME280;72967;43.674;6.976;2023-12-20T06:32:54;96358.25;;;10.14;70.33
83095;BME280;72967;43.674;6.976;2023-12-20T06:35:20;96363.59;;;10.38;69.51
83095;BME280;72967;43.674;6.976;2023-12-20T06:37:45;96360.50;;;10.24;69.96
83095;BME280;72967;43.674;6.976;2023-12-20T06:40:11;96358.66;;;10.00;68.10
83095;BME280;72967;43.674;6.976;2023-12-20T06:42:37;96365.41;;;10.03;69.79
83095;BME280;72967;43.674;6.976;2023-12-20T06:45:03;96360.38;;;10.05;68.64
83095;BME280;72967;43.674;6.976;2023-12-20T06:47:28;96357.56;;;10.17;68.25
83095;BME280;72967;43.674;6.976;2023-12-20T06:49:54;96358.94;;;10.11;67.69
83095;BME280;72967;43.674;6.976;2023-12-20T06:52:19;96351.28;;;10.16;67.54
83095;BME280;72967;43.674;6.976;2023-12-20T06:54:44;96351.72;;;10.18;67.77
83095;BME280;72967;43.674;6.976;2023-12-20T06:57:10;96353.59;;;10.30;67.94
83095;BME280;72967;43.674;6.976;2023-12-20T06:59:41;96348.00;;;10.27;68.33
83095;BME280;72967;43.674;6.976;2023-12-20T07:02:07;96351.19;;;10.29;67.85
83095;BME280;72967;43.674;6.976;2023-12-20T07:04:33;96350.94;;;10.34;67.80
83095;BME280;72967;43.674;6.976;2023-12-20T07:06:58;96359.63;;;10.36;67.88
83095;BME280;72967;43.674;6.976;2023-12-20T07:09:26;96361.19;;;10.37;68.29
83095;BME280;72967;43.674;6.976;2023-12-20T07:11:51;96370.16;;;10.34;69.35
83095;BME280;72967;43.674;6.976;2023-12-20T07:14:17;96376.47;;;10.50;68.87
83095;BME280;72967;43.674;6.976;2023-12-20T07:16:43;96380.91;;;10.39;69.51
83095;BME280;72967;43.674;6.976;2023-12-20T07:19:08;96386.13;;;10.28;70.50
83095;BME280;72967;43.674;6.976;2023-12-20T07:21:33;96374.69;;;10.42;70.01
83095;BME280;72967;43.674;6.976;2023-12-20T07:23:59;96377.88;;;10.44;69.80
83095;BME280;72967;43.674;6.976;2023-12-20T07:26:24;96364.59;;;10.30;70.01
83095;BME280;72967;43.674;6.976;2023-12-20T07:28:50;96355.91;;;10.44;69.51
83095;BME280;72967;43.674;6.976;2023-12-20T07:31:16;96363.59;;;10.54;69.74
83095;BME280;72967;43.674;6.976;2023-12-20T07:33:41;96365.63;;;10.57;69.08
83095;BME280;72967;43.674;6.976;2023-12-20T07:36:07;96366.81;;;10.56;69.83
83095;BME280;72967;43.674;6.976;2023-12-20T07:38:33;96364.47;;;10.58;69.51
83095;BME280;72967;43.674;6.976;2023-12-20T07:40:58;96369.28;;;10.45;71.02
83095;BME280;72967;43.674;6.976;2023-12-20T07:43:24;96366.34;;;10.54;70.89
83095;BME280;72967;43.674;6.976;2023-12-20T07:45:49;96360.59;;;10.43;70.71
83095;BME280;72967;43.674;6.976;2023-12-20T07:48:14;96368.56;;;10.64;70.37
83095;BME280;72967;43.674;6.976;2023-12-20T07:50:40;96358.72;;;10.47;70.39
83095;BME280;72967;43.674;6.976;2023-12-20T07:53:05;96349.69;;;10.31;71.06
83095;BME280;72967;43.674;6.976;2023-12-20T07:55:31;96341.34;;;10.43;69.53
83095;BME280;72967;43.674;6.976;2023-12-20T07:57:57;96354.22;;;10.55;69.67
83095;BME280;72967;43.674;6.976;2023-12-20T08:00:22;96359.91;;;10.46;69.92
83095;BME280;72967;43.674;6.976;2023-12-20T08:02:48;96347.47;;;10.37;71.55
83095;BME280;72967;43.674;6.976;2023-12-20T08:05:13;96361.38;;;10.44;71.83
83095;BME280;72967;43.674;6.976;2023-12-20T08:07:39;96357.31;;;10.38;71.57
83095;BME280;72967;43.674;6.976;2023-12-20T08:10:05;96356.34;;;10.30;70.89
83095;BME280;72967;43.674;6.976;2023-12-20T08:12:31;96345.53;;;10.21;71.55
83095;BME280;72967;43.674;6.976;2023-12-20T08:14:56;96364.47;;;10.42;70.61
83095;BME280;72967;43.674;6.976;2023-12-20T08:17:22;96357.75;;;10.55;69.83
83095;BME280;72967;43.674;6.976;2023-12-20T08:19:48;96351.81;;;10.53;69.69
83095;BME280;72967;43.674;6.976;2023-12-20T08:22:14;96346.59;;;10.33;70.94
83095;BME280;72967;43.674;6.976;2023-12-20T08:24:40;96359.19;;;10.49;69.54
83095;BME280;72967;43.674;6.976;2023-12-20T08:27:05;96368.50;;;10.45;70.00
83095;BME280;72967;43.674;6.976;2023-12-20T08:29:30;96365.66;;;10.41;70.33
83095;BME280;72967;43.674;6.976;2023-12-20T08:31:56;96368.56;;;10.48;70.37
83095;BME280;72967;43.674;6.976;2023-12-20T08:34:23;96341.34;;;10.59;68.83
83095;BME280;72967;43.674;6.976;2023-12-20T08:36:51;96364.72;;;10.69;68.71
83095;BME280;72967;43.674;6.976;2023-12-20T08:39:17;96366.81;;;10.56;69.41
83095;BME280;72967;43.674;6.976;2023-12-20T08:41:42;96383.38;;;10.59;69.17
83095;BME280;72967;43.674;6.976;2023-12-20T08:44:08;96367.34;;;10.61;69.17
83095;BME280;72967;43.674;6.976;2023-12-20T08:46:34;96378.47;;;10.69;69.56
83095;BME280;72967;43.674;6.976;2023-12-20T08:49:00;96372.97;;;10.69;68.74
83095;BME280;72967;43.674;6.976;2023-12-20T08:51:26;96359.84;;;10.78;68.62
83095;BME280;72967;43.674;6.976;2023-12-20T08:53:52;96373.84;;;10.88;68.53
83095;BME280;72967;43.674;6.976;2023-12-20T08:56:17;96381.66;;;10.86;68.50
83095;BME280;72967;43.674;6.976;2023-12-20T08:58:44;96385.63;;;10.89;68.43
83095;BME280;72967;43.674;6.976;2023-12-20T09:01:09;96381.63;;;11.02;67.61
83095;BME280;72967;43.674;6.976;2023-12-20T09:03:35;96367.91;;;10.86;67.84
83095;BME280;72967;43.674;6.976;2023-12-20T09:06:00;96353.59;;;10.96;68.01
83095;BME280;72967;43.674;6.976;2023-12-20T09:08:25;96346.16;;;10.97;68.08
83095;BME280;72967;43.674;6.976;2023-12-20T09:10:51;96358.91;;;11.05;67.51
83095;BME280;72967;43.674;6.976;2023-12-20T09:13:17;96360.31;;;10.99;67.96
83095;BME280;72967;43.674;6.976;2023-12-20T09:15:42;96351.19;;;10.95;67.66
83095;BME280;72967;43.674;6.976;2023-12-20T09:18:08;96354.47;;;11.00;68.08
83095;BME280;72967;43.674;6.976;2023-12-20T09:20:33;96357.81;;;11.09;67.23
83095;BME280;72967;43.674;6.976;2023-12-20T09:22:59;96374.31;;;11.09;68.07
83095;BME280;72967;43.674;6.976;2023-12-20T09:25:24;96377.47;;;10.92;68.01
83095;BME280;72967;43.674;6.976;2023-12-20T09:27:54;96376.75;;;10.95;67.65
83095;BME280;72967;43.674;6.976;2023-12-20T09:30:19;96390.19;;;11.16;67.42
83095;BME280;72967;43.674;6.976;2023-12-20T09:32:45;96369.25;;;11.12;68.02
83095;BME280;72967;43.674;6.976;2023-12-20T09:35:11;96379.06;;;11.28;67.05
83095;BME280;72967;43.674;6.976;2023-12-20T09:37:36;96388.41;;;11.24;66.35
83095;BME280;72967;43.674;6.976;2023-12-20T09:40:02;96381.78;;;11.09;67.78
83095;BME280;72967;43.674;6.976;2023-12-20T09:42:38;96379.81;;;11.09;68.12
83095;BME280;72967;43.674;6.976;2023-12-20T09:45:08;96405.63;;;11.40;67.44
83095;BME280;72967;43.674;6.976;2023-12-20T09:47:35;96406.59;;;11.28;67.49
83095;BME280;72967;43.674;6.976;2023-12-20T09:50:02;96375.78;;;11.03;68.73
83095;BME280;72967;43.674;6.976;2023-12-20T09:52:28;96392.44;;;11.30;68.09
83095;BME280;72967;43.674;6.976;2023-12-20T09:54:55;96390.44;;;11.27;67.66
83095;BME280;72967;43.674;6.976;2023-12-20T09:57:22;96400.66;;;11.45;67.36
83095;BME280;72967;43.674;6.976;2023-12-20T09:59:47;96399.59;;;11.88;66.43
83095;BME280;72967;43.674;6.976;2023-12-20T10:02:13;96406.06;;;12.38;64.62
83095;BME280;72967;43.674;6.976;2023-12-20T10:04:46;96402.25;;;12.46;64.13
83095;BME280;72967;43.674;6.976;2023-12-20T10:07:12;96402.88;;;12.59;63.47
83095;BME280;72967;43.674;6.976;2023-12-20T10:09:38;96403.47;;;12.26;64.78
83095;BME280;72967;43.674;6.976;2023-12-20T10:12:04;96392.84;;;12.28;64.29
83095;BME280;72967;43.674;6.976;2023-12-20T10:14:30;96384.84;;;12.19;63.31
83095;BME280;72967;43.674;6.976;2023-12-20T10:17:04;96415.22;;;12.23;63.64
83095;BME280;72967;43.674;6.976;2023-12-20T10:19:31;96401.69;;;12.14;64.00
83095;BME280;72967;43.674;6.976;2023-12-20T10:21:58;96401.84;;;12.02;64.25
83095;BME280;72967;43.674;6.976;2023-12-20T10:24:24;96400.69;;;11.65;65.12
83095;BME280;72967;43.674;6.976;2023-12-20T10:27:07;96387.88;;;11.91;63.97
83095;BME280;72967;43.674;6.976;2023-12-20T10:29:36;96381.91;;;11.70;64.57
83095;BME280;72967;43.674;6.976;2023-12-20T10:32:24;96372.34;;;11.83;63.80
83095;BME280;72967;43.674;6.976;2023-12-20T10:34:54;96368.66;;;11.95;63.88
83095;BME280;72967;43.674;6.976;2023-12-20T10:37:20;96369.56;;;12.03;63.36
83095;BME280;72967;43.674;6.976;2023-12-20T10:39:53;96371.84;;;11.59;64.02
83095;BME280;72967;43.674;6.976;2023-12-20T10:42:22;96373.22;;;11.87;63.61
83095;BME280;72967;43.674;6.976;2023-12-20T10:44:49;96375.69;;;11.92;62.91
83095;BME280;72967;43.674;6.976;2023-12-20T10:47:16;96362.50;;;11.82;62.33
83095;BME280;72967;43.674;6.976;2023-12-20T10:49:42;96358.63;;;12.06;62.58
83095;BME280;72967;43.674;6.976;2023-12-20T10:52:09;96346.47;;;11.88;63.18
83095;BME280;72967;43.674;6.976;2023-12-20T10:54:36;96352.72;;;11.85;63.45
83095;BME280;72967;43.674;6.976;2023-12-20T10:57:05;96338.31;;;12.14;62.26
83095;BME280;72967;43.674;6.976;2023-12-20T10:59:36;96332.41;;;11.93;61.99
83095;BME280;72967;43.674;6.976;2023-12-20T11:02:05;96316.97;;;12.34;61.70
83095;BME280;72967;43.674;6.976;2023-12-20T11:07:44;96318.81;;;12.75;60.64
83095;BME280;72967;43.674;6.976;2023-12-20T11:10:20;96324.72;;;12.74;60.38
83095;BME280;72967;43.674;6.976;2023-12-20T11:15:35;96313.91;;;12.62;61.44
83095;BME280;72967;43.674;6.976;2023-12-20T11:18:01;96311.41;;;12.53;61.30
83095;BME280;72967;43.674;6.976;2023-12-20T11:20:40;96306.06;;;12.41;61.90
83095;BME280;72967;43.674;6.976;2023-12-20T11:23:06;96314.31;;;12.38;62.50
83095;BME280;72967;43.674;6.976;2023-12-20T11:25:54;96318.81;;;12.49;62.67
83095;BME280;72967;43.674;6.976;2023-12-20T11:28:24;96309.72;;;12.22;63.05
83095;BME280;72967;43.674;6.976;2023-12-20T11:30:53;96305.72;;;12.20;63.62
83095;BME280;72967;43.674;6.976;2023-12-20T11:33:23;96288.56;;;12.30;62.65
83095;BME280;72967;43.674;6.976;2023-12-20T11:35:49;96291.81;;;12.35;62.79
83095;BME280;72967;43.674;6.976;2023-12-20T11:38:15;96289.06;;;12.13;63.26
83095;BME280;72967;43.674;6.976;2023-12-20T11:40:44;96305.66;;;11.93;63.69
83095;BME280;72967;43.674;6.976;2023-12-20T11:43:09;96293.22;;;12.03;63.03
83095;BME280;72967;43.674;6.976;2023-12-20T11:45:35;96278.34;;;12.30;62.10
83095;BME280;72967;43.674;6.976;2023-12-20T11:48:04;96278.41;;;11.88;63.38
83095;BME280;72967;43.674;6.976;2023-12-20T11:50:29;96266.66;;;12.14;62.23
83095;BME280;72967;43.674;6.976;2023-12-20T11:52:56;96272.19;;;11.91;63.38
83095;BME280;72967;43.674;6.976;2023-12-20T11:55:22;96267.41;;;11.88;63.27
83095;BME280;72967;43.674;6.976;2023-12-20T11:57:50;96263.94;;;11.91;63.62
83095;BME280;72967;43.674;6.976;2023-12-20T12:00:16;96265.94;;;12.17;62.27
83095;BME280;72967;43.674;6.976;2023-12-20T12:02:41;96263.31;;;12.28;62.29
83095;BME280;72967;43.674;6.976;2023-12-20T12:05:07;96247.25;;;12.07;63.08
83095;BME280;72967;43.674;6.976;2023-12-20T12:07:34;96262.69;;;12.12;62.93
83095;BME280;72967;43.674;6.976;2023-12-20T12:09:59;96263.50;;;12.12;63.14
83095;BME280;72967;43.674;6.976;2023-12-20T12:12:25;96261.06;;;12.33;61.89
83095;BME280;72967;43.674;6.976;2023-12-20T12:14:52;96258.78;;;12.39;62.13
83095;BME280;72967;43.674;6.976;2023-12-20T12:17:18;96258.91;;;12.46;61.90
83095;BME280;72967;43.674;6.976;2023-12-20T12:19:43;96257.13;;;12.34;62.56
83095;BME280;72967;43.674;6.976;2023-12-20T12:22:11;96258.28;;;12.33;62.10
83095;BME280;72967;43.674;6.976;2023-12-20T12:24:42;96262.72;;;12.38;61.78
83095;BME280;72967;43.674;6.976;2023-12-20T12:27:09;96255.34;;;12.46;61.38
83095;BME280;72967;43.674;6.976;2023-12-20T12:29:35;96256.50;;;12.45;61.39
83095;BME280;72967;43.674;6.976;2023-12-20T12:32:04;96266.31;;;12.42;61.05
83095;BME280;72967;43.674;6.976;2023-12-20T12:34:31;96264.50;;;12.27;61.95
83095;BME280;72967;43.674;6.976;2023-12-20T12:36:57;96271.53;;;12.47;61.26
83095;BME280;72967;43.674;6.976;2023-12-20T12:39:25;96252.94;;;12.44;60.84
83095;BME280;72967;43.674;6.976;2023-12-20T12:41:51;96252.31;;;12.54;60.94
83095;BME280;72967;43.674;6.976;2023-12-20T12:44:16;96240.88;;;12.52;60.89
83095;BME280;72967;43.674;6.976;2023-12-20T12:46:43;96232.84;;;12.44;61.73
83095;BME280;72967;43.674;6.976;2023-12-20T12:49:09;96239.59;;;12.46;61.17
83095;BME280;72967;43.674;6.976;2023-12-20T12:51:34;96234.75;;;12.66;60.77
83095;BME280;72967;43.674;6.976;2023-12-20T12:54:00;96229.56;;;12.61;60.91
83095;BME280;72967;43.674;6.976;2023-12-20T12:56:27;96232.03;;;12.69;60.80
83095;BME280;72967;43.674;6.976;2023-12-20T12:58:53;96205.69;;;12.72;60.07
83095;BME280;72967;43.674;6.976;2023-12-20T13:01:18;96224.34;;;12.82;60.48
83095;BME280;72967;43.674;6.976;2023-12-20T13:03:44;96217.56;;;12.76;60.63
83095;BME280;72967;43.674;6.976;2023-12-20T13:06:09;96209.75;;;12.52;60.37